Time;durP1;ratioP1;P1;durP2;ratioP2;P2;SDS_P1;SDS_P2;PMS_P1;PMS_P2;Temp;Humidity;BMP_temperature;BMP_pressure;BME280_temperature;BME280_humidity;BME280_pressure;Samples;Min_cycle;Max_cycle;Signal;HPM_P1;HPM_P2
2021/12/22 00:00:42;;;;;;;20.77;12.87;;;;;;;;;;5063962;28;20532;-53
2021/12/22 00:03:09;;;;;;;25.43;14.13;;;;;;;;;;5051370;28;20538;-52
2021/12/22 00:05:43;;;;;;;24.50;14.40;;;;;;;;;;5050273;28;20426;-54
2021/12/22 00:08:10;;;;;;;20.27;13.83;;;;;;;;;;5051726;28;20516;-54
2021/12/22 00:10:36;;;;;;;21.60;13.23;;;;;;;;;;5064901;28;20505;-53
2021/12/22 00:13:05;;;;;;;19.93;13.07;;;;;;;;;;5065496;28;20422;-53
2021/12/22 00:15:32;;;;;;;22.27;14.10;;;;;;;;;;5066281;28;20423;-53
2021/12/22 00:17:58;;;;;;;21.50;13.43;;;;;;;;;;5055704;28;20509;-53
2021/12/22 00:20:24;;;;;;;25.70;15.83;;;;;;;;;;5055128;28;20431;-53
2021/12/22 00:22:51;;;;;;;23.23;14.30;;;;;;;;;;5055052;28;20489;-53
2021/12/22 00:25:17;;;;;;;20.93;14.40;;;;;;;;;;5064700;28;20419;-53
2021/12/22 00:27:44;;;;;;;22.00;14.43;;;;;;;;;;5050424;28;20414;-53
2021/12/22 00:30:10;;;;;;;20.60;13.93;;;;;;;;;;5059466;28;20793;-53
2021/12/22 00:32:37;;;;;;;19.73;13.53;;;;;;;;;;5064068;28;20453;-53
2021/12/22 00:35:09;;;;;;;20.50;12.70;;;;;;;;;;5072744;28;20942;-53
2021/12/22 00:37:35;;;;;;;21.53;12.60;;;;;;;;;;5054185;28;20518;-53
2021/12/22 00:40:02;;;;;;;21.77;14.17;;;;;;;;;;5067361;28;20423;-53
2021/12/22 00:42:28;;;;;;;24.67;13.63;;;;;;;;;;5054760;28;20549;-53
2021/12/22 00:44:55;;;;;;;20.43;13.40;;;;;;;;;;5071962;28;20865;-55
2021/12/22 00:47:23;;;;;;;18.80;12.13;;;;;;;;;;5061377;28;20423;-53
2021/12/22 00:49:49;;;;;;;19.10;13.23;;;;;;;;;;5069275;28;20422;-53
2021/12/22 00:52:15;;;;;;;20.00;12.80;;;;;;;;;;5075658;28;20462;-53
2021/12/22 00:54:42;;;;;;;21.30;14.20;;;;;;;;;;5074584;28;20418;-53
2021/12/22 00:57:10;;;;;;;20.93;12.47;;;;;;;;;;5074225;28;20457;-53
2021/12/22 00:59:39;;;;;;;19.00;12.33;;;;;;;;;;5069823;28;20522;-54
2021/12/22 01:02:08;;;;;;;23.70;13.33;;;;;;;;;;5093086;28;20509;-53
2021/12/22 01:04:34;;;;;;;20.40;12.07;;;;;;;;;;5091745;28;21618;-53
2021/12/22 01:07:00;;;;;;;18.50;14.10;;;;;;;;;;5093452;28;20445;-55
2021/12/22 01:09:27;;;;;;;18.57;13.03;;;;;;;;;;5064412;28;20423;-53
2021/12/22 01:11:53;;;;;;;18.17;12.40;;;;;;;;;;5073853;28;20806;-52
2021/12/22 01:14:21;;;;;;;19.20;11.67;;;;;;;;;;5070588;28;20517;-53
2021/12/22 01:16:49;;;;;;;17.67;11.97;;;;;;;;;;5088905;28;20560;-53
2021/12/22 01:19:26;;;;;;;17.43;12.67;;;;;;;;;;5083362;28;20509;-53
2021/12/22 01:22:02;;;;;;;18.63;13.03;;;;;;;;;;5070227;28;20458;-52
2021/12/22 01:24:33;;;;;;;19.30;12.10;;;;;;;;;;5082900;28;20452;-54
2021/12/22 01:27:24;;;;;;;16.80;12.60;;;;;;;;;;5072458;28;20418;-53
2021/12/22 01:29:49;;;;;;;19.20;12.33;;;;;;;;;;5086480;28;20414;-52
2021/12/22 01:32:17;;;;;;;18.50;12.30;;;;;;;;;;5085453;28;20471;-53
2021/12/22 01:34:43;;;;;;;19.10;13.03;;;;;;;;;;5091632;28;20417;-53
2021/12/22 01:37:10;;;;;;;24.83;13.53;;;;;;;;;;5069158;28;20506;-53
2021/12/22 01:39:36;;;;;;;19.30;12.07;;;;;;;;;;5073099;28;20460;-53
2021/12/22 01:42:02;;;;;;;19.63;12.17;;;;;;;;;;5089809;28;21087;-54
2021/12/22 01:44:45;;;;;;;19.27;11.03;;;;;;;;;;5089327;28;21038;-54
2021/12/22 01:49:56;;;;;;;17.07;11.33;;;;;;;;;;5080948;28;20436;-52
2021/12/22 01:52:23;;;;;;;16.97;11.53;;;;;;;;;;5058788;28;21064;-53
2021/12/22 01:54:51;;;;;;;14.93;11.00;;;;;;;;;;5054504;28;20445;-53
2021/12/22 01:57:19;;;;;;;15.67;11.53;;;;;;;;;;5054163;28;20549;-53
2021/12/22 01:59:47;;;;;;;18.50;10.93;;;;;;;;;;5055374;28;20433;-53
2021/12/22 02:02:14;;;;;;;16.27;11.93;;;;;;;;;;5070889;28;20418;-53
2021/12/22 02:04:41;;;;;;;19.87;10.50;;;;;;;;;;5070877;28;20426;-53
2021/12/22 02:07:08;;;;;;;18.07;11.00;;;;;;;;;;5074187;28;20429;-55
2021/12/22 02:12:14;;;;;;;16.40;11.03;;;;;;;;;;5052060;28;20489;-53
2021/12/22 02:14:41;;;;;;;16.90;11.17;;;;;;;;;;5055741;28;20424;-53
2021/12/22 02:17:10;;;;;;;15.47;10.80;;;;;;;;;;5072198;28;20419;-53
2021/12/22 02:19:37;;;;;;;17.13;10.57;;;;;;;;;;5053278;28;20451;-53
2021/12/22 02:22:08;;;;;;;17.00;11.23;;;;;;;;;;5069312;28;21018;-53
2021/12/22 02:24:34;;;;;;;17.17;10.67;;;;;;;;;;5054426;28;20814;-53
2021/12/22 02:27:06;;;;;;;14.87;10.60;;;;;;;;;;5073935;28;20793;-53
2021/12/22 02:29:38;;;;;;;16.40;11.03;;;;;;;;;;5050470;28;20486;-54
2021/12/22 02:34:41;;;;;;;15.80;10.50;;;;;;;;;;5067028;28;20423;-53
2021/12/22 02:37:12;;;;;;;15.20;9.67;;;;;;;;;;5053909;28;20419;-53
2021/12/22 02:39:45;;;;;;;14.50;10.03;;;;;;;;;;5072914;28;20425;-53
2021/12/22 02:42:13;;;;;;;16.37;10.83;;;;;;;;;;5047915;28;20431;-53
2021/12/22 02:44:39;;;;;;;16.07;10.73;;;;;;;;;;5059379;28;20433;-53
2021/12/22 02:47:16;;;;;;;14.43;9.77;;;;;;;;;;5066985;28;20472;-53
2021/12/22 02:49:42;;;;;;;16.33;10.73;;;;;;;;;;5061407;28;20966;-53
2021/12/22 02:52:08;;;;;;;18.00;10.47;;;;;;;;;;5058033;28;20462;-52
2021/12/22 02:54:41;;;;;;;14.73;10.60;;;;;;;;;;5063078;28;20962;-52
2021/12/22 02:57:20;;;;;;;16.13;10.73;;;;;;;;;;5071229;28;20451;-52
2021/12/22 03:00:10;;;;;;;15.90;9.83;;;;;;;;;;5071273;28;20830;-52
2021/12/22 03:02:43;;;;;;;15.33;10.37;;;;;;;;;;5050478;28;20458;-53
2021/12/22 03:05:12;;;;;;;12.60;8.90;;;;;;;;;;5062519;28;20497;-53
2021/12/22 03:07:38;;;;;;;15.53;9.73;;;;;;;;;;5074387;28;20419;-53
2021/12/22 03:10:12;;;;;;;13.20;9.47;;;;;;;;;;5051579;28;20958;-52
2021/12/22 03:12:41;;;;;;;14.10;9.83;;;;;;;;;;5052344;28;20457;-53
2021/12/22 03:15:09;;;;;;;14.23;9.13;;;;;;;;;;5068603;28;20775;-52
2021/12/22 03:17:36;;;;;;;14.17;9.27;;;;;;;;;;5053116;28;20423;-53
2021/12/22 03:20:03;;;;;;;13.07;8.60;;;;;;;;;;5061347;28;20415;-53
2021/12/22 03:22:29;;;;;;;15.07;9.77;;;;;;;;;;5056353;28;20418;-53
2021/12/22 03:24:55;;;;;;;16.90;9.97;;;;;;;;;;5051184;28;20430;-53
2021/12/22 03:27:24;;;;;;;12.60;9.07;;;;;;;;;;5052135;28;20506;-52
2021/12/22 03:29:51;;;;;;;15.10;10.00;;;;;;;;;;5069509;28;20414;-54
2021/12/22 03:32:17;;;;;;;12.37;9.47;;;;;;;;;;5073303;28;20916;-53
2021/12/22 03:34:43;;;;;;;11.53;8.33;;;;;;;;;;5052785;28;20503;-52
2021/12/22 03:37:10;;;;;;;12.17;9.27;;;;;;;;;;5056362;28;20422;-52
2021/12/22 03:39:38;;;;;;;14.00;9.23;;;;;;;;;;5073416;28;20418;-52
2021/12/22 03:42:09;;;;;;;12.30;8.37;;;;;;;;;;5068725;28;20435;-53
2021/12/22 03:44:35;;;;;;;14.53;9.30;;;;;;;;;;5053777;28;20463;-54
2021/12/22 03:47:01;;;;;;;10.23;7.80;;;;;;;;;;5069723;28;20785;-53
2021/12/22 03:49:29;;;;;;;14.13;9.30;;;;;;;;;;5061211;28;20504;-54
2021/12/22 03:51:55;;;;;;;11.87;8.80;;;;;;;;;;5054335;28;20501;-52
2021/12/22 03:54:21;;;;;;;13.90;8.70;;;;;;;;;;5051544;28;20414;-53
2021/12/22 03:56:49;;;;;;;12.13;8.33;;;;;;;;;;5055899;28;20497;-53
2021/12/22 03:59:16;;;;;;;11.23;9.00;;;;;;;;;;5069837;28;20431;-53
2021/12/22 04:01:42;;;;;;;10.70;7.40;;;;;;;;;;5051634;28;20850;-52
2021/12/22 04:04:15;;;;;;;13.93;8.53;;;;;;;;;;5036453;28;20779;-52
2021/12/22 04:06:43;;;;;;;12.87;8.50;;;;;;;;;;5070718;28;20403;-52
2021/12/22 04:09:09;;;;;;;12.47;8.20;;;;;;;;;;5050484;28;20966;-51
2021/12/22 04:11:36;;;;;;;11.47;7.27;;;;;;;;;;5056174;28;20414;-51
2021/12/22 04:14:02;;;;;;;10.37;8.03;;;;;;;;;;5073345;28;20504;-53
2021/12/22 04:16:28;;;;;;;13.57;8.53;;;;;;;;;;5069851;28;20507;-51
2021/12/22 04:18:55;;;;;;;10.53;7.67;;;;;;;;;;5069854;28;20847;-52
2021/12/22 04:21:21;;;;;;;11.20;7.83;;;;;;;;;;5078684;28;20426;-53
2021/12/22 04:23:47;;;;;;;11.30;7.80;;;;;;;;;;5075471;28;20458;-53
2021/12/22 04:26:15;;;;;;;9.63;7.27;;;;;;;;;;5072103;28;20472;-53
2021/12/22 04:28:41;;;;;;;10.73;7.83;;;;;;;;;;5055489;28;20921;-53
2021/12/22 04:31:07;;;;;;;9.70;7.07;;;;;;;;;;5070588;28;20801;-53
2021/12/22 04:33:33;;;;;;;13.77;8.07;;;;;;;;;;5068608;28;20426;-53
2021/12/22 04:36:00;;;;;;;11.53;7.80;;;;;;;;;;5076845;28;20459;-53
2021/12/22 04:38:26;;;;;;;10.97;7.83;;;;;;;;;;5072468;28;20427;-53
2021/12/22 04:40:52;;;;;;;11.03;7.67;;;;;;;;;;5069367;28;20970;-53
2021/12/22 04:43:18;;;;;;;9.53;7.00;;;;;;;;;;5069235;28;20455;-53
2021/12/22 04:45:45;;;;;;;11.80;7.70;;;;;;;;;;5081010;28;20426;-53
2021/12/22 04:48:11;;;;;;;9.33;6.53;;;;;;;;;;5052808;28;20415;-53
2021/12/22 04:50:39;;;;;;;9.87;7.30;;;;;;;;;;5049991;28;20462;-54
2021/12/22 04:55:32;;;;;;;11.63;7.33;;;;;;;;;;5058629;28;20798;-53
2021/12/22 04:57:59;;;;;;;9.90;6.70;;;;;;;;;;5049719;28;20893;-53
2021/12/22 05:00:26;;;;;;;9.63;6.90;;;;;;;;;;5045929;28;20428;-53
2021/12/22 05:02:53;;;;;;;10.00;7.00;;;;;;;;;;5031512;28;20459;-52
2021/12/22 05:05:19;;;;;;;9.47;7.53;;;;;;;;;;5065825;28;20421;-53
2021/12/22 05:07:47;;;;;;;11.13;7.20;;;;;;;;;;5068005;28;20425;-52
2021/12/22 05:10:14;;;;;;;10.40;7.13;;;;;;;;;;5064926;28;20931;-53
2021/12/22 05:12:40;;;;;;;9.10;6.10;;;;;;;;;;5064517;28;20427;-53
2021/12/22 05:15:07;;;;;;;8.17;6.43;;;;;;;;;;5064296;28;20432;-53
2021/12/22 05:20:09;;;;;;;8.33;6.47;;;;;;;;;;5071835;28;20407;-53
2021/12/22 05:22:35;;;;;;;10.07;6.47;;;;;;;;;;5054330;28;20487;-54
2021/12/22 05:25:03;;;;;;;9.17;5.97;;;;;;;;;;5033613;28;20792;-53
2021/12/22 05:27:30;;;;;;;9.27;6.37;;;;;;;;;;5047667;28;20459;-52
2021/12/22 05:29:56;;;;;;;9.63;7.27;;;;;;;;;;5069617;28;20414;-53
2021/12/22 05:32:29;;;;;;;10.37;6.73;;;;;;;;;;5051382;28;20501;-53
2021/12/22 05:34:55;;;;;;;10.00;6.90;;;;;;;;;;5053310;28;20469;-53
2021/12/22 05:37:25;;;;;;;8.57;6.43;;;;;;;;;;5048712;28;20455;-53
2021/12/22 05:39:51;;;;;;;7.17;5.80;;;;;;;;;;5071017;28;20910;-52
2021/12/22 05:42:19;;;;;;;9.10;6.33;;;;;;;;;;5066374;28;20896;-53
2021/12/22 05:44:45;;;;;;;10.47;6.80;;;;;;;;;;5065618;28;20779;-53
2021/12/22 05:47:12;;;;;;;7.60;5.90;;;;;;;;;;5052116;28;20418;-53
2021/12/22 05:49:38;;;;;;;7.67;6.27;;;;;;;;;;5042916;28;20411;-54
2021/12/22 05:52:05;;;;;;;10.30;6.83;;;;;;;;;;5070710;28;20453;-53
2021/12/22 05:54:31;;;;;;;7.87;6.80;;;;;;;;;;5045656;28;20446;-55
2021/12/22 05:56:57;;;;;;;9.40;6.50;;;;;;;;;;5073474;28;20801;-52
2021/12/22 05:59:23;;;;;;;7.87;6.20;;;;;;;;;;5074507;28;20468;-53
2021/12/22 06:01:50;;;;;;;9.70;6.70;;;;;;;;;;5082693;28;20912;-53
2021/12/22 06:04:16;;;;;;;10.30;6.00;;;;;;;;;;5078267;28;21361;-53
2021/12/22 06:06:43;;;;;;;9.13;7.33;;;;;;;;;;5070540;28;20826;-53
2021/12/22 06:09:09;;;;;;;7.57;6.30;;;;;;;;;;5052079;28;20433;-52
2021/12/22 06:11:35;;;;;;;9.83;6.30;;;;;;;;;;5053196;28;20419;-52
2021/12/22 06:14:02;;;;;;;8.77;6.37;;;;;;;;;;5054163;28;20423;-53
2021/12/22 06:16:30;;;;;;;11.10;6.43;;;;;;;;;;5072880;28;20421;-53
2021/12/22 06:19:01;;;;;;;7.77;6.33;;;;;;;;;;5080612;28;20426;-53
2021/12/22 06:21:27;;;;;;;7.60;6.47;;;;;;;;;;5078797;28;20415;-53
2021/12/22 06:23:53;;;;;;;7.60;5.80;;;;;;;;;;5081725;28;20519;-53
2021/12/22 06:26:20;;;;;;;10.40;6.63;;;;;;;;;;5052925;28;20407;-53
2021/12/22 06:28:46;;;;;;;8.70;6.60;;;;;;;;;;5059318;28;20514;-53
2021/12/22 06:31:12;;;;;;;10.70;6.90;;;;;;;;;;5052723;28;20411;-53
2021/12/22 06:33:39;;;;;;;9.07;6.83;;;;;;;;;;5054727;28;20833;-53
2021/12/22 06:36:06;;;;;;;9.87;6.47;;;;;;;;;;5050553;28;20423;-52
2021/12/22 06:38:32;;;;;;;7.97;6.40;;;;;;;;;;5068113;28;20929;-53
2021/12/22 06:40:59;;;;;;;8.73;6.63;;;;;;;;;;5074323;28;20753;-52
2021/12/22 06:43:25;;;;;;;8.80;6.17;;;;;;;;;;5056423;28;20512;-53
2021/12/22 06:45:51;;;;;;;9.87;7.13;;;;;;;;;;5074657;28;20767;-53
2021/12/22 06:48:18;;;;;;;8.50;6.23;;;;;;;;;;5071201;28;20414;-52
2021/12/22 06:50:44;;;;;;;7.37;6.50;;;;;;;;;;5060916;28;20891;-53
2021/12/22 06:53:10;;;;;;;9.03;6.50;;;;;;;;;;5088022;28;20417;-53
2021/12/22 06:55:37;;;;;;;9.93;6.87;;;;;;;;;;5088117;28;20463;-52
2021/12/22 06:58:03;;;;;;;10.03;7.70;;;;;;;;;;5078592;28;20838;-52
2021/12/22 07:00:30;;;;;;;9.27;6.37;;;;;;;;;;5088891;28;20931;-52
2021/12/22 07:02:57;;;;;;;9.00;6.93;;;;;;;;;;5090625;28;20485;-52
2021/12/22 07:05:23;;;;;;;6.67;5.33;;;;;;;;;;5089739;28;20421;-53
2021/12/22 07:07:53;;;;;;;6.90;5.97;;;;;;;;;;5089749;28;20410;-52
2021/12/22 07:10:19;;;;;;;8.53;6.13;;;;;;;;;;5089461;28;20427;-53
2021/12/22 07:12:46;;;;;;;7.87;5.93;;;;;;;;;;5053125;28;20410;-53
2021/12/22 07:15:14;;;;;;;8.37;5.17;;;;;;;;;;5053495;28;21173;-53
2021/12/22 07:17:41;;;;;;;6.33;5.37;;;;;;;;;;5085227;28;20439;-54
2021/12/22 07:20:08;;;;;;;6.50;4.80;;;;;;;;;;5086346;28;20410;-54
2021/12/22 07:22:34;;;;;;;7.30;5.33;;;;;;;;;;5089222;28;20422;-53
2021/12/22 07:25:01;;;;;;;6.13;4.93;;;;;;;;;;5087252;28;20848;-52
2021/12/22 07:27:28;;;;;;;6.50;5.00;;;;;;;;;;5088357;28;20437;-52
2021/12/22 07:29:54;;;;;;;6.73;5.40;;;;;;;;;;5068592;28;20414;-53
2021/12/22 07:32:20;;;;;;;5.77;4.93;;;;;;;;;;5090418;28;20444;-53
2021/12/22 07:35:05;;;;;;;8.13;4.90;;;;;;;;;;5088001;28;20422;-57
2021/12/22 07:37:34;;;;;;;5.10;4.60;;;;;;;;;;5071303;28;20456;-53
2021/12/22 07:40:00;;;;;;;5.73;4.80;;;;;;;;;;5068449;28;20509;-54
2021/12/22 07:42:26;;;;;;;6.30;4.60;;;;;;;;;;5078413;28;20464;-53
2021/12/22 07:44:53;;;;;;;5.73;4.43;;;;;;;;;;5086969;28;20929;-52
2021/12/22 07:47:19;;;;;;;4.80;4.20;;;;;;;;;;5071715;28;20422;-53
2021/12/22 07:49:46;;;;;;;5.43;4.07;;;;;;;;;;5088765;28;20413;-51
2021/12/22 07:52:12;;;;;;;6.33;4.57;;;;;;;;;;5053088;28;20459;-53
2021/12/22 07:54:39;;;;;;;6.33;4.83;;;;;;;;;;5062524;28;20419;-53
2021/12/22 07:57:06;;;;;;;5.80;4.17;;;;;;;;;;5068394;28;20529;-53
2021/12/22 07:59:35;;;;;;;5.60;3.97;;;;;;;;;;5071501;28;20464;-54
2021/12/22 08:02:01;;;;;;;4.47;3.73;;;;;;;;;;5053424;28;20418;-53
2021/12/22 08:04:28;;;;;;;6.10;3.97;;;;;;;;;;5050576;28;20450;-54
2021/12/22 08:06:55;;;;;;;5.57;3.83;;;;;;;;;;5050260;28;20414;-54
2021/12/22 08:09:26;;;;;;;6.93;4.13;;;;;;;;;;5068874;28;20464;-53
2021/12/22 08:11:55;;;;;;;7.07;4.47;;;;;;;;;;5067647;28;20403;-53
2021/12/22 08:14:23;;;;;;;5.57;3.83;;;;;;;;;;5076049;28;20881;-53
2021/12/22 08:16:50;;;;;;;4.03;3.53;;;;;;;;;;5077935;28;20422;-53
2021/12/22 08:19:16;;;;;;;6.10;4.33;;;;;;;;;;5037734;28;20475;-53
2021/12/22 08:21:44;;;;;;;5.80;3.80;;;;;;;;;;5073851;28;20496;-53
2021/12/22 08:24:10;;;;;;;4.63;3.93;;;;;;;;;;5068690;28;20447;-53
2021/12/22 08:26:36;;;;;;;5.37;3.80;;;;;;;;;;5035229;28;20435;-53
2021/12/22 08:29:03;;;;;;;4.37;3.50;;;;;;;;;;5041253;28;20451;-53
2021/12/22 08:31:29;;;;;;;6.23;3.53;;;;;;;;;;5050739;28;20498;-52
2021/12/22 08:33:56;;;;;;;5.13;3.80;;;;;;;;;;5051666;28;20979;-52
2021/12/22 08:39:10;;;;;;;5.50;3.67;;;;;;;;;;5073737;28;20445;-53
2021/12/22 08:41:41;;;;;;;4.47;3.43;;;;;;;;;;5056151;28;20419;-53
2021/12/22 08:44:08;;;;;;;4.73;3.30;;;;;;;;;;5064433;28;20878;-53
2021/12/22 08:46:39;;;;;;;4.90;3.47;;;;;;;;;;5071215;28;20917;-53
2021/12/22 08:49:06;;;;;;;5.67;3.73;;;;;;;;;;5066018;28;20415;-53
2021/12/22 08:51:33;;;;;;;5.43;4.10;;;;;;;;;;5051218;28;20458;-52
2021/12/22 08:54:00;;;;;;;4.60;3.70;;;;;;;;;;5070355;28;20741;-53
2021/12/22 08:56:27;;;;;;;6.93;3.57;;;;;;;;;;5071826;28;20813;-53
2021/12/22 08:58:54;;;;;;;8.10;3.50;;;;;;;;;;5070377;28;20521;-54
2021/12/22 09:01:21;;;;;;;6.20;4.17;;;;;;;;;;5060903;28;20739;-52
2021/12/22 09:03:47;;;;;;;4.10;3.70;;;;;;;;;;5052316;28;20537;-52
2021/12/22 09:06:13;;;;;;;6.57;4.07;;;;;;;;;;5069000;28;20887;-52
2021/12/22 09:08:40;;;;;;;7.10;4.00;;;;;;;;;;5069321;28;20426;-53
2021/12/22 09:11:07;;;;;;;6.47;3.97;;;;;;;;;;5074984;28;20421;-53
2021/12/22 09:13:35;;;;;;;4.27;3.80;;;;;;;;;;5068554;28;21309;-53
2021/12/22 09:16:01;;;;;;;5.77;3.83;;;;;;;;;;5072381;28;20430;-53
2021/12/22 09:18:28;;;;;;;6.00;4.30;;;;;;;;;;5062284;28;20489;-52
2021/12/22 09:20:54;;;;;;;6.00;3.77;;;;;;;;;;5071102;28;20820;-53
2021/12/22 09:23:20;;;;;;;5.87;4.20;;;;;;;;;;5072366;28;20461;-52
2021/12/22 09:25:50;;;;;;;6.77;4.03;;;;;;;;;;5072356;28;20877;-52
2021/12/22 09:28:16;;;;;;;4.60;3.90;;;;;;;;;;5071028;28;20467;-52
2021/12/22 09:30:43;;;;;;;7.60;3.97;;;;;;;;;;5068959;28;20427;-52
2021/12/22 09:33:14;;;;;;;5.30;3.90;;;;;;;;;;5067852;28;20461;-52
2021/12/22 09:35:44;;;;;;;4.20;3.60;;;;;;;;;;5068073;28;20433;-54
2021/12/22 09:38:11;;;;;;;5.77;4.50;;;;;;;;;;5063577;28;20487;-54
2021/12/22 09:40:38;;;;;;;7.37;4.93;;;;;;;;;;5031930;28;20427;-53
2021/12/22 09:43:07;;;;;;;6.07;4.00;;;;;;;;;;5063504;28;20982;-53
2021/12/22 09:45:37;;;;;;;8.40;4.70;;;;;;;;;;5049635;28;20526;-55
2021/12/22 09:53:27;;;;;;;8.13;5.97;;;;;;;;;;5041397;28;20427;-54
2021/12/22 09:55:53;;;;;;;6.70;4.47;;;;;;;;;;5075151;28;21015;-54
2021/12/22 09:58:19;;;;;;;6.63;3.90;;;;;;;;;;5057952;28;20928;-54
2021/12/22 10:00:47;;;;;;;8.07;4.90;;;;;;;;;;5084073;28;20972;-54
2021/12/22 10:03:14;;;;;;;7.30;4.80;;;;;;;;;;5062686;28;20470;-54
2021/12/22 10:05:41;;;;;;;7.13;4.70;;;;;;;;;;5060440;28;20419;-55
2021/12/22 10:08:20;;;;;;;7.17;5.13;;;;;;;;;;5077644;28;20426;-55
2021/12/22 10:10:51;;;;;;;5.43;4.47;;;;;;;;;;5073072;28;20407;-54
2021/12/22 10:13:18;;;;;;;7.00;5.27;;;;;;;;;;5078932;28;20428;-54
2021/12/22 10:15:45;;;;;;;5.37;4.40;;;;;;;;;;5069588;28;20423;-54
2021/12/22 10:18:15;;;;;;;8.60;4.63;;;;;;;;;;5071740;28;20517;-55
2021/12/22 10:20:42;;;;;;;6.73;4.60;;;;;;;;;;5071236;28;20422;-54
2021/12/22 10:23:22;;;;;;;7.83;5.07;;;;;;;;;;5080160;28;20550;-54
2021/12/22 10:25:53;;;;;;;8.73;5.73;;;;;;;;;;5046765;28;20457;-54
2021/12/22 10:28:19;;;;;;;8.67;5.17;;;;;;;;;;5074180;28;20961;-54
2021/12/22 10:30:47;;;;;;;5.17;4.53;;;;;;;;;;5072023;28;20437;-54
2021/12/22 10:33:20;;;;;;;5.77;4.80;;;;;;;;;;5065318;28;20455;-54
2021/12/22 10:35:48;;;;;;;7.07;4.80;;;;;;;;;;5065025;28;20426;-54
2021/12/22 10:38:15;;;;;;;7.03;5.27;;;;;;;;;;5075791;28;20530;-54
2021/12/22 10:40:42;;;;;;;6.80;5.77;;;;;;;;;;5071545;28;20426;-54
2021/12/22 10:43:09;;;;;;;5.83;4.67;;;;;;;;;;5071295;28;20462;-54
2021/12/22 10:45:36;;;;;;;5.73;5.10;;;;;;;;;;5074036;28;20423;-54
2021/12/22 10:50:54;;;;;;;9.87;4.87;;;;;;;;;;5068034;28;20441;-53
2021/12/22 10:53:21;;;;;;;9.17;5.10;;;;;;;;;;5071932;28;20414;-54
2021/12/22 10:55:49;;;;;;;7.57;5.27;;;;;;;;;;5070936;28;20411;-54
2021/12/22 10:58:27;;;;;;;8.30;6.20;;;;;;;;;;5052716;28;20418;-54
2021/12/22 11:01:12;;;;;;;7.57;5.97;;;;;;;;;;5063220;28;20418;-54
2021/12/22 11:03:51;;;;;;;13.77;5.03;;;;;;;;;;5071135;28;20545;-54
2021/12/22 11:06:21;;;;;;;6.50;5.37;;;;;;;;;;5070750;28;20421;-54
2021/12/22 11:09:05;;;;;;;7.00;4.57;;;;;;;;;;5078139;28;20418;-54
2021/12/22 11:11:33;;;;;;;7.00;5.40;;;;;;;;;;5065177;28;20425;-54
2021/12/22 11:14:04;;;;;;;12.03;5.53;;;;;;;;;;5053286;28;20433;-54
2021/12/22 11:16:30;;;;;;;5.97;5.00;;;;;;;;;;5066311;28;20782;-54
2021/12/22 11:19:08;;;;;;;7.37;5.87;;;;;;;;;;5056852;28;20833;-54
2021/12/22 11:21:35;;;;;;;6.60;5.77;;;;;;;;;;5091127;28;20381;-54
2021/12/22 11:24:02;;;;;;;5.63;4.97;;;;;;;;;;5055895;28;20885;-55
2021/12/22 11:26:29;;;;;;;5.53;4.80;;;;;;;;;;5052799;28;20429;-54
2021/12/22 11:28:55;;;;;;;7.67;5.00;;;;;;;;;;5069313;28;20453;-54
2021/12/22 11:31:21;;;;;;;10.43;5.13;;;;;;;;;;5069792;28;20498;-54
2021/12/22 11:33:47;;;;;;;8.53;5.40;;;;;;;;;;5069444;28;20435;-54
2021/12/22 11:36:15;;;;;;;7.17;5.07;;;;;;;;;;5049498;28;20872;-55
2021/12/22 11:38:41;;;;;;;6.97;6.00;;;;;;;;;;5052067;28;20903;-55
2021/12/22 11:41:12;;;;;;;6.23;4.97;;;;;;;;;;5069649;28;20462;-55
2021/12/22 11:43:40;;;;;;;8.30;5.43;;;;;;;;;;5070303;28;20451;-55
2021/12/22 11:46:07;;;;;;;5.77;5.17;;;;;;;;;;5051229;28;20431;-55
2021/12/22 11:48:34;;;;;;;6.07;5.27;;;;;;;;;;5070051;28;20426;-55
2021/12/22 11:51:01;;;;;;;10.07;6.30;;;;;;;;;;5058016;28;20469;-54
2021/12/22 11:53:47;;;;;;;6.77;5.97;;;;;;;;;;5078228;28;20419;-55
2021/12/22 11:56:33;;;;;;;7.37;5.33;;;;;;;;;;5049840;28;20519;-55
2021/12/22 11:59:01;;;;;;;7.87;5.70;;;;;;;;;;5032399;28;20450;-55
2021/12/22 12:01:27;;;;;;;9.13;5.23;;;;;;;;;;5048610;28;20523;-56
2021/12/22 12:04:11;;;;;;;5.60;4.17;;;;;;;;;;5066586;28;20569;-53
2021/12/22 12:06:50;;;;;;;5.43;4.83;;;;;;;;;;5066029;28;20948;-55
2021/12/22 12:09:21;;;;;;;5.77;5.00;;;;;;;;;;5050576;28;20425;-55
2021/12/22 12:11:52;;;;;;;7.00;5.23;;;;;;;;;;5067803;28;20423;-55
2021/12/22 12:23:24;;;;;;;7.17;5.47;;;;;;;;;;5065406;28;20500;-55
2021/12/22 12:25:51;;;;;;;6.57;5.27;;;;;;;;;;5063262;28;20423;-53
2021/12/22 12:28:18;;;;;;;6.20;5.60;;;;;;;;;;5066357;28;20418;-55
2021/12/22 12:30:48;;;;;;;5.37;4.43;;;;;;;;;;5067549;28;20920;-53
2021/12/22 12:33:26;;;;;;;6.13;5.27;;;;;;;;;;5068932;28;20419;-53
2021/12/22 12:36:01;;;;;;;5.23;4.73;;;;;;;;;;5069607;28;20425;-54
2021/12/22 12:38:40;;;;;;;5.70;5.07;;;;;;;;;;5048603;28;20479;-54
2021/12/22 12:41:11;;;;;;;6.20;5.30;;;;;;;;;;5049083;28;20434;-54
2021/12/22 12:43:51;;;;;;;7.53;6.27;;;;;;;;;;5046911;28;20469;-54
2021/12/22 12:46:24;;;;;;;7.97;5.80;;;;;;;;;;5066209;28;20831;-53
2021/12/22 12:49:06;;;;;;;5.57;4.90;;;;;;;;;;5063600;28;20494;-54
2021/12/22 12:51:37;;;;;;;6.63;5.33;;;;;;;;;;5081430;28;20465;-57
2021/12/22 12:54:04;;;;;;;7.10;5.27;;;;;;;;;;5083569;28;21002;-57
2021/12/22 12:56:33;;;;;;;6.77;5.50;;;;;;;;;;5067935;28;20477;-54
2021/12/22 12:58:59;;;;;;;8.00;5.57;;;;;;;;;;5067149;28;20429;-54
2021/12/22 13:01:44;;;;;;;7.07;5.33;;;;;;;;;;5082602;28;20441;-56
2021/12/22 13:04:20;;;;;;;7.07;5.87;;;;;;;;;;5086906;28;20208;-54
2021/12/22 13:06:47;;;;;;;7.33;5.63;;;;;;;;;;5090333;28;20425;-54
2021/12/22 13:09:43;;;;;;;7.63;5.97;;;;;;;;;;5065269;28;20463;-54
2021/12/22 13:17:30;;;;;;;10.30;5.57;;;;;;;;;;5088427;28;20479;-54
2021/12/22 13:19:57;;;;;;;7.33;5.67;;;;;;;;;;5091327;28;20449;-54
2021/12/22 13:22:23;;;;;;;6.50;5.30;;;;;;;;;;5079868;28;20437;-54
2021/12/22 13:24:50;;;;;;;6.20;5.60;;;;;;;;;;5086943;28;20929;-54
2021/12/22 13:27:28;;;;;;;7.17;6.07;;;;;;;;;;5086447;28;20507;-54
2021/12/22 13:30:24;;;;;;;5.97;5.37;;;;;;;;;;5079700;28;20455;-54
2021/12/22 13:32:57;;;;;;;9.93;6.00;;;;;;;;;;5060151;28;20834;-56
2021/12/22 13:35:31;;;;;;;6.07;5.43;;;;;;;;;;5066563;28;20448;-54
2021/12/22 13:37:58;;;;;;;7.20;5.30;;;;;;;;;;5087067;28;20816;-55
2021/12/22 13:40:41;;;;;;;6.63;4.63;;;;;;;;;;5091097;28;20430;-55
2021/12/22 13:43:16;;;;;;;5.83;5.20;;;;;;;;;;5067007;28;20458;-55
2021/12/22 13:45:42;;;;;;;6.23;5.03;;;;;;;;;;5087717;28;20425;-55
2021/12/22 13:48:22;;;;;;;6.60;5.50;;;;;;;;;;5088158;28;20800;-55
2021/12/22 13:50:49;;;;;;;6.90;5.20;;;;;;;;;;5086565;28;20476;-55
2021/12/22 13:53:17;;;;;;;5.57;4.97;;;;;;;;;;5090648;28;20417;-55
2021/12/22 13:55:43;;;;;;;7.07;5.43;;;;;;;;;;5087742;28;21255;-55
2021/12/22 13:58:27;;;;;;;6.17;5.57;;;;;;;;;;5082083;28;20430;-55
2021/12/22 14:01:12;;;;;;;7.23;5.40;;;;;;;;;;5083436;28;20912;-55
2021/12/22 14:03:39;;;;;;;6.77;5.10;;;;;;;;;;5086154;28;20933;-55
2021/12/22 14:06:06;;;;;;;6.20;5.13;;;;;;;;;;5071775;28;20475;-55
2021/12/22 14:08:33;;;;;;;5.50;4.93;;;;;;;;;;5086660;28;20949;-55
2021/12/22 14:10:59;;;;;;;6.57;5.03;;;;;;;;;;5073544;28;20410;-55
2021/12/22 14:13:29;;;;;;;8.13;5.67;;;;;;;;;;5088447;28;20444;-54
2021/12/22 14:15:56;;;;;;;7.57;5.53;;;;;;;;;;5095957;28;20457;-54
2021/12/22 14:18:35;;;;;;;6.40;5.80;;;;;;;;;;5072301;28;20803;-54
2021/12/22 14:21:02;;;;;;;8.27;5.40;;;;;;;;;;5065829;28;20473;-54
2021/12/22 14:23:28;;;;;;;6.93;5.43;;;;;;;;;;5086978;28;20453;-53
2021/12/22 14:26:07;;;;;;;7.07;5.83;;;;;;;;;;5085371;28;20433;-55
2021/12/22 14:28:35;;;;;;;10.20;5.50;;;;;;;;;;5088986;28;20424;-54
2021/12/22 14:31:10;;;;;;;6.43;5.47;;;;;;;;;;5064258;28;20436;-54
2021/12/22 14:33:36;;;;;;;8.70;6.37;;;;;;;;;;5073686;28;20429;-54
2021/12/22 14:36:09;;;;;;;9.90;5.30;;;;;;;;;;5079878;28;20460;-54
2021/12/22 14:38:37;;;;;;;7.27;5.37;;;;;;;;;;5070313;28;20415;-53
2021/12/22 14:41:03;;;;;;;6.10;5.33;;;;;;;;;;5085804;28;20430;-54
2021/12/22 14:43:43;;;;;;;6.27;5.00;;;;;;;;;;5063112;28;20454;-55
2021/12/22 14:46:10;;;;;;;8.03;5.87;;;;;;;;;;5087456;28;20425;-55
2021/12/22 14:48:43;;;;;;;6.83;5.53;;;;;;;;;;5087865;28;20967;-54
2021/12/22 14:51:21;;;;;;;6.53;5.60;;;;;;;;;;5081992;28;20852;-55
2021/12/22 14:53:49;;;;;;;6.43;5.20;;;;;;;;;;5065135;28;20407;-53
2021/12/22 14:56:20;;;;;;;6.43;5.27;;;;;;;;;;5052593;28;20796;-54
2021/12/22 14:58:47;;;;;;;5.97;5.00;;;;;;;;;;5067504;28;20444;-54
2021/12/22 15:01:16;;;;;;;7.10;6.20;;;;;;;;;;5047450;28;20933;-54
2021/12/22 15:03:42;;;;;;;8.67;6.17;;;;;;;;;;5067458;28;20458;-55
2021/12/22 15:06:10;;;;;;;8.03;5.40;;;;;;;;;;5066077;28;20463;-54
2021/12/22 15:08:41;;;;;;;7.27;6.20;;;;;;;;;;5070372;28;20430;-54
2021/12/22 15:11:07;;;;;;;7.57;5.93;;;;;;;;;;5066079;28;20909;-54
2021/12/22 15:13:34;;;;;;;6.20;5.57;;;;;;;;;;5068694;28;20423;-54
2021/12/22 15:16:00;;;;;;;7.73;5.80;;;;;;;;;;5061866;28;20458;-54
2021/12/22 15:18:27;;;;;;;6.97;6.13;;;;;;;;;;5066310;28;20426;-54
2021/12/22 15:20:53;;;;;;;7.03;6.10;;;;;;;;;;5066894;28;20461;-54
2021/12/22 15:23:20;;;;;;;6.83;6.00;;;;;;;;;;5067332;28;20454;-54